September 26, 2022

Time Code Weather Temp. Visibility Ceiling Wind METAR/SPECI
08:30
L
9 °C 1.6 km - 260° 260° 5 kt METAR LFCR 260630Z AUTO 26005KT 230V290 1600 R31/1300D BR VV/// 09/09 Q1014 BECMG 3000 BR BKN012
08:00
L
9 °C 650 m - 270° 270° 5 kt METAR LFCR 260600Z AUTO 27005KT 0800 0650 R31/1000D FG VV/// 09/09 Q1014 BECMG 3000 BR BKN012
07:30
L
9 °C 550 m - 290° 290° 6 kt METAR LFCR 260530Z AUTO 29006KT 0550 R31/0650N FG VV/// 09/09 Q1014 BECMG 3000 BR BKN012
07:00
L
9 °C 550 m - 300° 300° 6 kt METAR LFCR 260500Z AUTO 30006KT 270V330 0550 R31/0650N FG VV/// 09/09 Q1014 NOSIG
06:30
L
9 °C 550 m - 280° 280° 6 kt METAR LFCR 260430Z AUTO 28006KT 0750 0550 R31/0650D FG VV/// 09/09 Q1014 TEMPO 0500 FG
06:00
L
9 °C 3.7 km - 250° 250° 4 kt METAR LFCR 260400Z AUTO 25004KT 3700 BR VV/// 09/09 Q1014 TEMPO 0500 FG
05:30
I
10 °C 10 km+ 500 ft 240° 240° 3 kt METAR LFCR 260330Z AUTO 24003KT 9999 OVC005 10/10 Q1014 TEMPO 0500 FG VV///
05:00
I
9 °C 10 km+ 500 ft 240° 240° 4 kt METAR LFCR 260300Z AUTO 24004KT 9999 OVC005 09/09 Q1014 TEMPO 0500 FG VV///
04:30
I
9 °C 10 km+ 600 ft 240° 240° 4 kt METAR LFCR 260230Z AUTO 24004KT 9999 OVC006 09/09 Q1014 TEMPO 0500 FG VV///
04:00
I
9 °C 10 km+ 700 ft 270° 270° 5 kt METAR LFCR 260200Z AUTO 27005KT 9999 BKN007 09/09 Q1015 TEMPO 0500 FG VV///
03:30
V
8 °C 10 km+ - 240° 240° 3 kt METAR LFCR 260130Z AUTO 24003KT CAVOK 08/08 Q1015 TEMPO 0500 FG VV///
03:00
V
7 °C 10 km+ - 200° 200° 4 kt METAR LFCR 260100Z AUTO 20004KT CAVOK 07/07 Q1015 TEMPO 0500 FG VV///
02:30
V
8 °C 10 km+ - 220° 220° 4 kt METAR LFCR 260030Z AUTO 22004KT CAVOK 08/07 Q1015 TEMPO 0500 FG VV///
02:00
V
8 °C 10 km+ - 270° 270° 2 kt METAR LFCR 260000Z AUTO 27002KT CAVOK 08/07 Q1015 BECMG 4000 BR
01:30
V
10 °C 10 km+ - 310° 310° 2 kt METAR LFCR 252330Z AUTO 31002KT CAVOK 10/08 Q1015 BECMG 4000 BR
01:00
V
10 °C 10 km+ - 290° 290° 4 kt METAR LFCR 252300Z AUTO 29004KT CAVOK 10/09 Q1016 BECMG 4000 BR
00:30
V
10 °C 10 km+ - 270° 270° 4 kt METAR LFCR 252230Z AUTO 27004KT CAVOK 10/08 Q1016 BECMG 4000 BR
00:00
V
11 °C 10 km+ - Var Var 2 kt METAR LFCR 252200Z AUTO VRB02KT CAVOK 11/09 Q1016 BECMG 4000 BR

September 25, 2022

Time Code Weather Temp. Visibility Ceiling Wind METAR/SPECI
23:30
V
11 °C 10 km+ - 220° 220° 3 kt METAR LFCR 252130Z AUTO 22003KT 190V250 CAVOK 11/10 Q1016 BECMG 4000 BR
23:00
V
11 °C 10 km+ 5,600 ft 280° 280° 5 kt METAR LFCR 252100Z AUTO 28005KT 9999 FEW022 BKN056 BKN074 11/09 Q1016 BECMG 4000 BR
22:30
V
11 °C 10 km+ 7,600 ft 300° 300° 6 kt METAR LFCR 252030Z AUTO 30006KT 9999 SCT023 BKN076 11/09 Q1016 BECMG 4000 BR
22:00
M
12 °C 10 km+ 2,400 ft 300° 300° 7 kt METAR LFCR 252000Z AUTO 30007KT 9999 BKN024 BKN031 BKN074 12/10 Q1016 TEMPO SCT025TCU
21:30
M
13 °C 10 km+ 2,900 ft 320° 320° 4 kt METAR LFCR 251930Z AUTO 32004KT 280V360 9999 BKN029 OVC034 13/09 Q1016 TEMPO SCT025TCU
21:00
M
13 °C 10 km+ 2,900 ft 330° 330° 4 kt METAR LFCR 251900Z AUTO 33004KT 9999 BKN029 OVC034 13/09 Q1016 TEMPO SCT025TCU
20:30
M
14 °C 10 km+ 2,700 ft 310° 310° 8 kt METAR LFCR 251830Z AUTO 31008KT 9999 BKN027 BKN034 BKN046 14/09 Q1015 TEMPO SCT025TCU
20:00
V
13 °C 10 km+ 3,600 ft 280° 280° 8 kt METAR LFCR 251800Z AUTO 28008KT 9999 BKN036 BKN042 13/09 Q1015 TEMPO SCT025TCU
19:30
V
14 °C 10 km+ - 280° 280° 9 kt METAR LFCR 251730Z AUTO 28009KT 9999 FEW039 SCT074 14/08 Q1015 NOSIG
19:00
V
15 °C 10 km+ 7,400 ft 280° 280° 12 kt METAR LFCR 251700Z AUTO 28012KT 9999 FEW028 OVC074 15/09 Q1015 NOSIG
18:30
M
15 °C 10 km+ 2,800 ft 290° 290° 13 kt METAR LFCR 251630Z AUTO 29013KT 9999 BKN028 BKN074 15/09 Q1015 NOSIG
18:00
M
15 °C 10 km+ 2,900 ft 300° 300° 12 kt METAR LFCR 251600Z AUTO 30012KT 9999 BKN029 BKN040 BKN050 15/09 Q1015 NOSIG
17:30
V
16 °C 10 km+ 6,800 ft 300° 300° 9 kt METAR LFCR 251530Z AUTO 30009KT 9999 SCT032 BKN068 16/09 Q1014 NOSIG
17:00
V
16 °C 10 km+ - 310° 310° 9 kt METAR LFCR 251500Z AUTO 31009KT CAVOK 16/09 Q1015 NOSIG
16:30
V
16 °C 10 km+ - 310° 310° 10 - 22 kt METAR LFCR 251430Z AUTO 31010G22KT 250V340 9999 SCT031 SCT040 16/07 Q1015 NOSIG
16:00
V
16 °C 10 km+ - 300° 300° 8 kt METAR LFCR 251400Z AUTO 30008KT 260V350 CAVOK 16/08 Q1015 TEMPO SCT025TCU
15:30
V
16 °C 10 km+ - 280° 280° 7 kt METAR LFCR 251330Z AUTO 28007KT 240V320 9999 FEW030 16/08 Q1015 TEMPO SCT025TCU
15:00
V
15 °C 10 km+ - 300° 300° 8 kt METAR LFCR 251300Z AUTO 30008KT 270V330 CAVOK 15/08 Q1015 TEMPO SCT025TCU
14:30
V
15 °C 10 km+ - 320° 320° 7 kt METAR LFCR 251230Z AUTO 32007KT 250V020 9999 SCT022 15/09 Q1015 TEMPO SCT025TCU
14:00
V
14 °C 10 km+ - 300° 300° 8 kt METAR LFCR 251200Z AUTO 30008KT 280V340 9999 SCT022 SCT027 14/10 Q1016 TEMPO SCT025TCU
13:30
M
13 °C 10 km+ 2,700 ft 340° 340° 8 kt METAR LFCR 251130Z AUTO 34008KT 9999 FEW012 BKN027 13/09 Q1016 TEMPO SCT030TCU
13:00
M
13 °C 10 km+ 2,200 ft 340° 340° 6 kt METAR LFCR 251100Z AUTO 34006KT 300V020 9999 FEW009 BKN022 OVC027 13/10 Q1016 TEMPO SCT030TCU
12:30
M
12 °C 10 km+ 1,900 ft 330° 330° 5 kt METAR LFCR 251030Z AUTO 33005KT 290V360 9999 OVC019 12/10 Q1016 TEMPO SCT030TCU
12:00
M
12 °C 10 km+ 2,000 ft 310° 310° 8 kt METAR LFCR 251000Z AUTO 31008KT 9999 FEW007 OVC020 12/10 Q1016 TEMPO SCT030TCU
11:30
I
11 °C 10 km+ 700 ft 300° 300° 7 kt METAR LFCR 250930Z AUTO 30007KT 9999 BKN007 BKN011 OVC021 11/10 Q1016 TEMPO SCT030TCU
11:00
I
12 °C 10 km+ 600 ft 300° 300° 5 kt METAR LFCR 250900Z AUTO 30005KT 9999 BKN006 BKN010 BKN017 12/11 Q1016 TEMPO SCT030TCU
10:30
M
11 °C 10 km+ 1,700 ft 250° 250° 6 kt METAR LFCR 250830Z AUTO 25006KT 210V270 9999 SCT008 OVC017 11/10 Q1015 TEMPO SCT030TCU
10:00
I
11 °C 10 km+ 800 ft 260° 260° 6 kt METAR LFCR 250800Z AUTO 26006KT 9999 BKN008 BKN012 OVC020 11/10 Q1015 TEMPO SCT030TCU
09:30
I
11 °C 10 km+ 800 ft 260° 260° 5 kt METAR LFCR 250730Z AUTO 26005KT 230V300 9999 BKN008 OVC021 11/10 Q1015 TEMPO SCT030TCU
09:00
I
11 °C 10 km+ 500 ft 280° 280° 6 kt METAR LFCR 250700Z AUTO 28006KT 9999 OVC005 11/10 Q1015 TEMPO 4000 BR
08:30
I
10 °C 10 km+ 600 ft 270° 270° 4 kt METAR LFCR 250630Z AUTO 27004KT 9999 OVC006 10/10 Q1015 TEMPO 4000 BR BKN003
08:00
I
10 °C 10 km+ 500 ft 250° 250° 5 kt METAR LFCR 250600Z AUTO 25005KT 9999 BKN005 BKN009 BKN017 10/10 Q1015 TEMPO 4000 BR
07:30
M
10 °C 10 km+ 2,800 ft Var Var 2 kt METAR LFCR 250530Z AUTO VRB02KT 9999 FEW005 BKN028 10/10 Q1014 TEMPO 4000 SHRA BKN006 SCT018TCU
07:00
M
10 °C 10 km+ 2,000 ft 250° 250° 4 kt METAR LFCR 250500Z AUTO 25004KT 9999 FEW006 BKN020 OVC025 10/10 Q1014 TEMPO 4000 SHRA BKN006 SCT018TCU
06:30
M
11 °C 10 km+ 1,900 ft Var Var 3 kt METAR LFCR 250430Z AUTO VRB03KT 9999 OVC019 11/10 Q1014 TEMPO 4000 SHRA BKN006 SCT018TCU
06:00
M
10 °C 10 km+ 1,500 ft 180° 180° 2 kt METAR LFCR 250400Z AUTO 18002KT 9999 SCT007 OVC015 10/10 Q1014 TEMPO 4000 SHRA BKN006 SCT018TCU
05:30
M
10 °C 10 km+ 1,600 ft Var 000° 0 kt METAR LFCR 250330Z AUTO 00000KT 9999 SCT011 OVC016 10/10 Q1014 TEMPO 4000 SHRA BKN006 SCT018TCU
05:00
M
10 °C 10 km+ 1,000 ft Var 000° 0 kt METAR LFCR 250300Z AUTO 00000KT 9999 OVC010 10/10 Q1014 TEMPO 4000 SHRA BKN006 SCT018TCU
04:30
I
9 °C 10 km+ 900 ft Var 000° 0 kt METAR LFCR 250230Z AUTO 00000KT 9999 BKN009 BKN070 09/09 Q1015 TEMPO 4000 SHRA BKN006 SCT018TCU
04:00
V
8 °C 10 km+ - Var Var 3 kt METAR LFCR 250200Z AUTO VRB03KT CAVOK 08/08 Q1015 TEMPO 4000 SHRA BKN006 SCT018TCU
03:30
V
9 °C 10 km+ - Var Var 3 kt METAR LFCR 250130Z AUTO VRB03KT 9999 FEW009 09/08 Q1015 TEMPO 4000 SHRA BKN006 SCT018TCU
03:00
V
9 °C 10 km+ - 290° 290° 3 kt METAR LFCR 250100Z AUTO 29003KT 9999 FEW047 SCT074 09/09 Q1015 TEMPO 4000 SHRA BKN006 SCT018TCU
02:30
V
10 °C 10 km+ - 310° 310° 4 kt METAR LFCR 250030Z AUTO 31004KT 9999 FEW011 SCT074 10/09 Q1015 TEMPO 4000 SHRA BKN006 SCT018TCU
02:00
V
11 °C 10 km+ 23,000 ft 300° 300° 4 kt METAR LFCR 250000Z AUTO 30004KT 9999 FEW013 SCT048 BKN230 11/09 Q1015 TEMPO 4000 SHRA BKN006 SCT018TCU
01:30
V
11 °C 10 km+ 23,000 ft 270° 270° 8 kt METAR LFCR 242330Z AUTO 27008KT 9999 SCT027/// OVC230/// //////TCU 11/09 Q1015 TEMPO BKN006
01:00
M
11 °C 10 km+ 2,700 ft 280° 280° 8 kt METAR LFCR 242300Z AUTO 28008KT 9999 FEW012/// SCT020/// BKN027/// ///TCU 11/10 Q1015 TEMPO 4000 SHRA BKN013 SCT030CB
00:30
V
12 °C 10 km+ 7,400 ft 260° 260° 5 kt METAR LFCR 242230Z AUTO 26005KT 9999 FEW011/// BKN074/// //////TCU 12/11 Q1015 TEMPO 4000 SHRA BKN013 SCT030CB
00:00
M
12 °C 10 km+ 1,100 ft Var Var 2 kt METAR LFCR 242200Z AUTO VRB02KT 9999 BKN011/// BKN021/// BKN066/// //////CB 12/11 Q1015 TEMPO 4000 SHRA

September 24, 2022

Time Code Weather Temp. Visibility Ceiling Wind METAR/SPECI
23:30
M
12 °C 10 km+ 2,300 ft 180° 180° 3 kt METAR LFCR 242130Z AUTO 18003KT 9999 SCT013/// BKN023/// BKN110/// //////CB 12/11 Q1015 TEMPO 4000 SHRA BKN013 SCT030CB
23:00
V
12 °C 10 km+ 3,300 ft 170° 170° 3 kt METAR LFCR 242100Z AUTO 17003KT 150V230 9999 SCT017/// SCT023/// BKN033/// //////CB 12/11 Q1015 TEMPO 4000 SHRA BKN013 SCT030CB
22:30
V
12 °C 10 km+ - 230° 230° 3 kt METAR LFCR 242030Z AUTO 23003KT 190V260 9999 FEW020/// //////CB 12/11 Q1015 TEMPO 4000 SHRA BKN013 SCT030CB
22:00
V
12 °C 10 km+ 12,000 ft 240° 240° 7 kt METAR LFCR 242000Z AUTO 24007KT 9999 FEW015/// BKN120/// //////CB 12/11 Q1015 TEMPO 4000 SHRA BKN013 SCT030CB
21:30
M
13 °C 10 km+ 2,100 ft 240° 240° 10 kt METAR LFCR 241930Z AUTO 24010KT 9999 FEW012/// BKN021/// BKN030/// //////TCU 13/11 Q1015 TEMPO 4000 SHRA BKN013 SCT030CB BECMG 33006KT
21:00
V
14 °C 10 km+ 6,600 ft 250° 250° 9 kt METAR LFCR 241900Z AUTO 25009KT 220V280 9999 FEW013/// SCT018/// BKN066/// //////TCU 14/12 Q1015 TEMPO 4000 SHRA BKN013 SCT030CB
20:30
V
13 °C 10 km+ - 260° 260° 7 kt METAR LFCR 241830Z AUTO 26007KT 9999 //////CB 13/12 Q1014 TEMPO 4000 SHRA BKN013 SCT030CB
20:00
V
14 °C 10 km+ 6,200 ft 260° 260° 7 kt METAR LFCR 241800Z AUTO 26007KT 9999 FEW022/// SCT050/// BKN062/// //////CB 14/12 Q1014 TEMPO 4000 SHRA BKN013 SCT030CB
19:30
V
14 °C 10 km+ 9,200 ft 250° 250° 6 kt METAR LFCR 241730Z AUTO 25006KT 9999 FEW012/// OVC092/// //////TCU 14/12 Q1014 TEMPO 4000 SHRA BKN013 SCT030CB
19:00
V
14 °C 10 km+ 4,100 ft 240° 240° 7 kt METAR LFCR 241700Z AUTO 24007KT 9999 FEW012 BKN041 BKN056 14/12 Q1014 TEMPO VRB15G30KT 4000 SHRA BKN013 SCT030CB
18:30
V
14 °C 10 km+ 10,000 ft 240° 240° 6 kt METAR LFCR 241630Z AUTO 24006KT 9999 FEW034 OVC100 14/12 Q1014 TEMPO VRB15G30KT 4000 SHRA BKN013 SCT030CB
18:00
V
14 °C 10 km+ 10,000 ft 250° 250° 6 kt METAR LFCR 241600Z AUTO 25006KT 9999 -RA FEW016/// SCT048/// OVC100/// //////TCU 14/12 Q1014 TEMPO VRB15G30KT 4000 SHRA BKN013 SCT030CB
17:30
V
14 °C 10 km+ - 250° 250° 7 kt METAR LFCR 241530Z AUTO 25007KT 9999 //////CB 14/12 Q1014 TEMPO VRB15G30KT 4000 SHRA BKN013 SCT030CB
17:00
V
14 °C 10 km+ 7,400 ft 240° 240° 7 kt METAR LFCR 241500Z AUTO 24007KT 9999 -RA FEW040/// SCT062/// BKN074/// //////CB 14/12 Q1014 TEMPO VRB15G30KT 4000 SHRA BKN013 SCT030CB
16:30
V
14 °C 10 km+ 5,200 ft 260° 260° 8 kt METAR LFCR 241430Z AUTO 26008KT 9999 -RA FEW034/// BKN052/// OVC092/// //////CB 14/11 Q1014 TEMPO VRB15G30KT 4000 SHRA BKN013 SCT030CB
16:00
V
15 °C 10 km+ - 290° 290° 10 kt METAR LFCR 241400Z AUTO 29010KT 9999 //////TCU 15/11 Q1014 TEMPO VRB15G30KT 4000 SHRA BKN013 SCT030CB
15:30
V
16 °C 10 km+ 7,400 ft 290° 290° 7 kt METAR LFCR 241330Z AUTO 29007KT 9999 FEW034/// SCT056/// BKN074/// ///CB 16/10 Q1014 TEMPO VRB15G30KT 4000 SHRA BKN013 SCT030CB
15:00
V
16 °C 10 km+ 7,600 ft 290° 290° 9 kt METAR LFCR 241300Z AUTO 29009KT 9999 SCT030 BKN076 BKN120 16/10 Q1014 TEMPO 4000 SHRA BKN013 SCT030CB
14:30
V
16 °C 10 km+ 15,000 ft 290° 290° 9 kt METAR LFCR 241230Z AUTO 29009KT 250V310 9999 FEW033 BKN150 BKN170 16/10 Q1014 TEMPO 4000 SHRA BKN013 SCT030CB
14:00
V
16 °C 10 km+ 3,500 ft 310° 310° 8 kt METAR LFCR 241200Z AUTO 31008KT 9999 FEW020 BKN035 OVC047 16/12 Q1015 NOSIG
13:30
M
16 °C 10 km+ 2,400 ft 340° 340° 5 kt METAR LFCR 241130Z AUTO 34005KT 310V010 9999 FEW018 BKN024 BKN032 16/12 Q1015 BECMG SCT040TCU
13:00
V
16 °C 10 km+ 3,100 ft 350° 350° 5 kt METAR LFCR 241100Z AUTO 35005KT 260V040 9999 SCT015 BKN031 BKN047 16/12 Q1015 BECMG SCT040TCU
12:30
M
15 °C 10 km+ 1,300 ft 340° 340° 5 kt METAR LFCR 241030Z AUTO 34005KT 290V010 9999 BKN013 BKN026 BKN220 15/12 Q1015 BECMG SCT040TCU
12:00
M
16 °C 10 km+ 1,200 ft 030° 030° 3 kt METAR LFCR 241000Z AUTO 03003KT 340V070 9999 FEW008 BKN012 BKN028 16/13 Q1015 BECMG SCT007 BKN020
11:30
M
14 °C 10 km+ 1,700 ft 280° 280° 4 kt METAR LFCR 240930Z AUTO 28004KT 240V340 9999 FEW009 BKN017 OVC032 14/12 Q1015 NOSIG
11:00
M
15 °C 10 km+ 1,500 ft Var Var 3 kt METAR LFCR 240900Z AUTO VRB03KT 9999 BKN015 BKN020 OVC025 15/11 Q1015 NOSIG
10:30
V
16 °C 10 km+ 4,600 ft Var Var 2 kt METAR LFCR 240830Z AUTO VRB02KT 9999 FEW014 SCT019 OVC046 16/12 Q1015 NOSIG
10:00
I
14 °C 10 km+ 700 ft Var Var 2 kt METAR LFCR 240800Z AUTO VRB02KT 9999 BKN007 BKN022 BKN027 14/12 Q1015 BECMG SCT007 BKN020
09:30
M
13 °C 10 km+ 2,100 ft Var Var 1 kt METAR LFCR 240730Z AUTO VRB01KT 9999 FEW006 OVC021 13/12 Q1015 BECMG BKN010
09:00
M
13 °C 10 km+ 2,100 ft 150° 150° 3 kt METAR LFCR 240700Z AUTO 15003KT 9999 FEW006 BKN021 OVC044 13/12 Q1015 BECMG BKN010
08:30
M
13 °C 10 km+ 1,100 ft 150° 150° 3 kt METAR LFCR 240630Z AUTO 15003KT 9999 SCT005 BKN011 OVC022 13/12 Q1015 NOSIG
08:00
I
12 °C 10 km+ 600 ft 110° 110° 2 kt METAR LFCR 240600Z AUTO 11002KT 9999 BKN006 OVC023 12/12 Q1015 BECMG BKN010
07:30
M
12 °C 10 km+ 1,700 ft Var Var 2 kt METAR LFCR 240530Z AUTO VRB02KT 9999 FEW005 OVC017 12/12 Q1015 BECMG BKN010
07:00
I
12 °C 10 km+ 600 ft Var Var 1 kt METAR LFCR 240500Z AUTO VRB01KT 9999 BKN006 OVC019 12/12 Q1015 TEMPO 3000 -DZ OVC001
Older data

We and third parties follow your internet behavior on our website with cookies. If you continue, we assume you agree with our cookie policy. Learn more